TimeCDT,TemperatureF,Dew PointF,Humidity,Sea Level PressureIn,VisibilityMPH,Wind Direction,Wind SpeedMPH,Gust SpeedMPH,PrecipitationIn,Events,Conditions,WindDirDegrees,DateUTC
12:15 AM,53.6,42.8,67,30.11,10.0,North,8.1,-,N/A,,Clear,10,2013-05-05 05:15:00
12:35 AM,51.8,44.6,76,30.11,10.0,North,9.2,-,N/A,,Clear,10,2013-05-05 05:35:00
12:55 AM,51.8,44.6,76,30.10,10.0,North,8.1,-,N/A,,Clear,10,2013-05-05 05:55:00
1:15 AM,51.8,44.6,76,30.11,10.0,North,8.1,-,N/A,,Clear,10,2013-05-05 06:15:00
1:35 AM,51.8,44.6,76,30.10,10.0,NE,4.6,-,N/A,,Clear,40,2013-05-05 06:35:00
1:55 AM,51.8,44.6,76,30.10,10.0,NNE,10.4,-,N/A,,Clear,20,2013-05-05 06:55:00
2:15 AM,51.8,44.6,76,30.09,10.0,North,9.2,-,N/A,,Clear,10,2013-05-05 07:15:00
2:35 AM,50.0,44.6,82,30.09,10.0,North,9.2,-,N/A,,Clear,10,2013-05-05 07:35:00
2:55 AM,50.0,44.6,82,30.09,10.0,North,9.2,-,N/A,,Clear,10,2013-05-05 07:55:00
3:15 AM,50.0,44.6,82,30.09,10.0,NNE,8.1,-,N/A,,Clear,20,2013-05-05 08:15:00
3:35 AM,48.2,44.6,87,30.09,10.0,NNE,10.4,-,N/A,,Clear,30,2013-05-05 08:35:00
3:55 AM,46.4,44.6,93,30.09,10.0,NNE,9.2,-,N/A,,Clear,30,2013-05-05 08:55:00
4:15 AM,46.4,42.8,87,30.10,10.0,NE,5.8,-,N/A,,Clear,40,2013-05-05 09:15:00
4:35 AM,44.6,42.8,93,30.09,10.0,NE,5.8,-,N/A,,Clear,40,2013-05-05 09:35:00
4:55 AM,44.6,42.8,93,30.09,10.0,NNE,5.8,-,N/A,,Clear,20,2013-05-05 09:55:00
5:15 AM,44.6,42.8,93,30.09,10.0,North,5.8,-,N/A,,Clear,10,2013-05-05 10:15:00
5:35 AM,44.6,42.8,93,30.10,10.0,NNE,4.6,-,N/A,,Clear,20,2013-05-05 10:35:00
5:45 AM,44.6,44.6,100,30.10,10.0,NNE,4.6,-,N/A,,Clear,30,2013-05-05 10:45:00
6:45 AM,44.6,44.6,100,30.11,10.0,NE,5.8,-,N/A,,Clear,40,2013-05-05 11:45:00
7:45 AM,46.4,42.8,87,30.12,10.0,ENE,6.9,-,N/A,,Clear,60,2013-05-05 12:45:00
8:50 AM,48.2,42.8,82,30.12,10.0,ENE,5.8,-,N/A,,Clear,60,2013-05-05 13:50:00
9:45 AM,51.8,42.8,71,30.12,10.0,ENE,4.6,-,N/A,,Clear,70,2013-05-05 14:45:00
10:50 AM,57.2,42.8,59,30.12,10.0,ENE,3.5,-,N/A,,Clear,70,2013-05-05 15:50:00
11:45 AM,60.8,42.8,52,30.12,10.0,ENE,3.5,-,N/A,,Clear,70,2013-05-05 16:45:00
1:50 PM,68.0,37.4,33,30.09,10.0,SSE,9.2,-,N/A,,Clear,160,2013-05-05 18:50:00
2:45 PM,69.8,37.4,31,30.07,10.0,ESE,5.8,-,N/A,,Clear,110,2013-05-05 19:45:00
3:45 PM,69.8,37.4,31,30.09,10.0,ENE,5.8,-,N/A,,Clear,70,2013-05-05 20:45:00
4:45 PM,69.8,33.8,27,30.04,10.0,Variable,4.6,-,N/A,,Clear,0,2013-05-05 21:45:00
6:55 PM,68.0,37.4,33,30.05,10.0,SE,6.9,-,N/A,,Clear,140,2013-05-05 23:55:00
7:55 PM,64.4,39.2,40,30.06,10.0,SE,5.8,-,N/A,,Clear,140,2013-05-06 00:55:00
8:55 PM,60.8,39.2,45,30.07,10.0,ESE,4.6,-,N/A,,Clear,120,2013-05-06 01:55:00
9:50 PM,59.0,39.2,48,30.07,10.0,East,4.6,-,N/A,,Clear,100,2013-05-06 02:50:00
10:15 PM,55.4,39.2,54,30.07,10.0,East,4.6,-,N/A,,Clear,100,2013-05-06 03:15:00
10:35 PM,55.4,39.2,54,30.07,10.0,East,4.6,-,N/A,,Clear,100,2013-05-06 03:35:00
10:55 PM,55.4,41.0,58,30.07,10.0,East,4.6,-,N/A,,Clear,90,2013-05-06 03:55:00
11:15 PM,53.6,41.0,62,30.07,10.0,East,3.5,-,N/A,,Clear,80,2013-05-06 04:15:00
11:35 PM,53.6,41.0,62,30.08,10.0,East,3.5,-,N/A,,Clear,80,2013-05-06 04:35:00
11:55 PM,53.6,41.0,62,30.07,10.0,East,3.5,-,N/A,,Clear,90,2013-05-06 04:55:00